Time;durP1;ratioP1;P1;durP2;ratioP2;P2;SDS_P1;SDS_P2;PMS_P1;PMS_P2;Temp;Humidity;BMP_temperature;BMP_pressure;BME280_temperature;BME280_humidity;BME280_pressure;Samples;Min_cycle;Max_cycle;Signal;HPM_P1;HPM_P2
2022/07/14 00:00:57;;;;;;;;;;;;;;;19.00;70.24;97174.88;6153203;28;19927;-66
2022/07/14 00:03:59;;;;;;;;;;;;;;;18.99;70.11;97181.19;6152846;29;20431;-66
2022/07/14 00:07:01;;;;;;;;;;;;;;;18.99;70.52;97175.84;6152913;28;19981;-66
2022/07/14 00:10:02;;;;;;;;;;;;;;;19.01;69.93;97169.38;6152693;29;20014;-66
2022/07/14 00:13:04;;;;;;;;;;;;;;;19.02;69.95;97175.56;6152676;28;20427;-65
2022/07/14 00:16:06;;;;;;;;;;;;;;;19.04;69.81;97176.25;6152837;28;19926;-65
2022/07/14 00:19:07;;;;;;;;;;;;;;;19.05;70.12;97185.94;6152307;28;20312;-65
2022/07/14 00:22:08;;;;;;;;;;;;;;;19.08;70.00;97185.69;6152864;28;19923;-65
2022/07/14 00:25:09;;;;;;;;;;;;;;;19.10;69.45;97186.34;6152363;28;19930;-65
2022/07/14 00:28:11;;;;;;;;;;;;;;;19.11;69.25;97189.84;6152101;28;19932;-66
2022/07/14 00:31:15;;;;;;;;;;;;;;;19.12;69.03;97192.38;6152441;28;19926;-65
2022/07/14 00:34:18;;;;;;;;;;;;;;;19.15;69.46;97192.09;6151940;28;19926;-65
2022/07/14 00:37:21;;;;;;;;;;;;;;;19.18;68.89;97186.47;6152207;29;20016;-65
2022/07/14 00:40:23;;;;;;;;;;;;;;;19.23;68.85;97183.38;6150860;29;20392;-65
2022/07/14 00:43:24;;;;;;;;;;;;;;;19.23;69.16;97178.88;6151645;28;19927;-66
2022/07/14 00:46:27;;;;;;;;;;;;;;;19.23;69.57;97181.53;6151891;28;19926;-65
2022/07/14 00:49:36;;;;;;;;;;;;;;;19.24;69.03;97191.22;6151723;28;20328;-65
2022/07/14 00:52:38;;;;;;;;;;;;;;;19.26;69.24;97193.75;6152032;29;19927;-65
2022/07/14 00:55:42;;;;;;;;;;;;;;;19.31;68.99;97185.31;6151459;28;19926;-65
2022/07/14 00:58:46;;;;;;;;;;;;;;;19.37;68.67;97180.22;6151717;28;19926;-64
2022/07/14 01:01:49;;;;;;;;;;;;;;;19.45;68.69;97191.00;6151859;28;19933;-65
2022/07/14 01:04:53;;;;;;;;;;;;;;;19.49;68.66;97191.53;6151984;29;19952;-65
2022/07/14 01:07:54;;;;;;;;;;;;;;;19.55;68.35;97187.44;6151765;28;19926;-65
2022/07/14 01:10:55;;;;;;;;;;;;;;;19.62;68.66;97181.38;6151517;28;19935;-66
2022/07/14 01:14:02;;;;;;;;;;;;;;;19.68;68.92;97187.97;6151241;28;19933;-65
2022/07/14 01:17:09;;;;;;;;;;;;;;;19.77;68.14;97180.91;6151512;28;19926;-65
2022/07/14 01:20:10;;;;;;;;;;;;;;;19.84;68.50;97180.13;6151123;29;20312;-65
2022/07/14 01:23:11;;;;;;;;;;;;;;;19.94;68.02;97177.44;6151149;28;20021;-65
2022/07/14 01:26:12;;;;;;;;;;;;;;;20.00;68.12;97176.81;6151071;29;19926;-65
2022/07/14 01:29:16;;;;;;;;;;;;;;;20.07;68.96;97183.25;6150911;29;19926;-65
2022/07/14 01:32:17;;;;;;;;;;;;;;;20.15;67.58;97185.97;6150852;28;19927;-65
2022/07/14 01:35:21;;;;;;;;;;;;;;;20.22;67.96;97177.38;6150897;28;20311;-65
2022/07/14 01:38:27;;;;;;;;;;;;;;;20.27;67.94;97177.75;6151130;28;19926;-66
2022/07/14 01:41:30;;;;;;;;;;;;;;;20.34;67.49;97178.81;6150783;28;19922;-66
2022/07/14 01:44:31;;;;;;;;;;;;;;;20.46;67.04;97187.44;6150722;28;19926;-66
2022/07/14 01:47:35;;;;;;;;;;;;;;;20.57;66.83;97185.41;6150576;29;19927;-65
2022/07/14 01:50:36;;;;;;;;;;;;;;;20.66;67.42;97188.97;6150286;28;20073;-64
2022/07/14 01:53:43;;;;;;;;;;;;;;;20.77;66.57;97190.56;6150664;29;19927;-66
2022/07/14 01:56:46;;;;;;;;;;;;;;;20.87;66.90;97185.97;6150596;28;19930;-65
2022/07/14 01:59:47;;;;;;;;;;;;;;;20.94;67.51;97187.00;6149893;28;19926;-66
2022/07/14 02:02:53;;;;;;;;;;;;;;;21.02;67.91;97189.75;6150303;28;20408;-65
2022/07/14 02:05:57;;;;;;;;;;;;;;;21.11;66.37;97197.81;6149078;28;19997;-65
2022/07/14 02:08:58;;;;;;;;;;;;;;;21.18;66.10;97199.72;6149878;28;19926;-66
2022/07/14 02:12:11;;;;;;;;;;;;;;;21.27;65.53;97192.59;6149081;29;19926;-65
2022/07/14 02:15:13;;;;;;;;;;;;;;;21.35;65.64;97195.31;6149845;28;19930;-65
2022/07/14 02:18:14;;;;;;;;;;;;;;;21.44;65.43;97186.34;6149853;28;19934;-65
2022/07/14 02:21:15;;;;;;;;;;;;;;;21.55;65.71;97179.03;6149737;28;19926;-65
2022/07/14 02:24:20;;;;;;;;;;;;;;;21.64;65.49;97188.78;6149959;28;19927;-66
2022/07/14 02:27:21;;;;;;;;;;;;;;;21.73;64.84;97190.47;6150029;28;19926;-66
2022/07/14 02:30:24;;;;;;;;;;;;;;;21.82;64.98;97186.81;6149725;28;19926;-65
2022/07/14 02:33:25;;;;;;;;;;;;;;;21.91;63.95;97190.38;6149566;28;19926;-65
2022/07/14 02:36:27;;;;;;;;;;;;;;;22.01;64.49;97195.59;6149851;28;19930;-65
2022/07/14 02:39:30;;;;;;;;;;;;;;;22.05;64.52;97196.94;6149488;28;19926;-65
2022/07/14 02:42:33;;;;;;;;;;;;;;;22.11;64.39;97202.50;6149476;28;19926;-65
2022/07/14 02:45:37;;;;;;;;;;;;;;;22.19;64.52;97199.88;6149311;28;19926;-65
2022/07/14 02:48:43;;;;;;;;;;;;;;;22.24;64.44;97196.69;6149277;28;19965;-65
2022/07/14 02:51:48;;;;;;;;;;;;;;;22.30;64.50;97201.38;6149292;28;19926;-65
2022/07/14 02:54:49;;;;;;;;;;;;;;;22.32;64.33;97198.56;6148091;29;19933;-66
2022/07/14 02:57:53;;;;;;;;;;;;;;;22.39;64.65;97200.41;6149377;28;19926;-65
2022/07/14 03:00:56;;;;;;;;;;;;;;;22.45;64.55;97192.69;6149391;28;19926;-66
2022/07/14 03:03:59;;;;;;;;;;;;;;;22.51;64.63;97192.03;6149353;28;19931;-65
2022/07/14 03:07:05;;;;;;;;;;;;;;;22.55;65.25;97198.75;6148991;29;20316;-65
2022/07/14 03:10:07;;;;;;;;;;;;;;;22.61;65.46;97192.69;6163393;28;19942;-65
2022/07/14 03:13:10;;;;;;;;;;;;;;;22.66;65.63;97201.09;6149005;28;20037;-64
2022/07/14 03:16:12;;;;;;;;;;;;;;;22.73;65.88;97199.44;6148993;28;19978;-66
2022/07/14 03:19:15;;;;;;;;;;;;;;;22.80;65.88;97197.75;6148422;28;20289;-66
2022/07/14 03:22:19;;;;;;;;;;;;;;;22.96;66.04;97196.09;6151859;28;19923;-66
2022/07/14 03:25:23;;;;;;;;;;;;;;;23.02;65.84;97193.56;6153301;28;19927;-66
2022/07/14 03:28:24;;;;;;;;;;;;;;;23.05;65.47;97200.44;6153340;28;19933;-66
2022/07/14 03:31:27;;;;;;;;;;;;;;;23.12;65.50;97209.47;6153395;28;19926;-66
2022/07/14 03:34:33;;;;;;;;;;;;;;;23.23;65.27;97200.22;6153317;28;19949;-66
2022/07/14 03:37:35;;;;;;;;;;;;;;;23.37;65.10;97209.44;6153316;28;20358;-65
2022/07/14 03:40:40;;;;;;;;;;;;;;;23.47;63.88;97204.72;6153164;28;19934;-65
2022/07/14 03:43:46;;;;;;;;;;;;;;;23.62;63.47;97205.66;6153121;28;20301;-65
2022/07/14 03:46:48;;;;;;;;;;;;;;;23.79;62.65;97208.31;6152822;28;20028;-65
2022/07/14 03:49:52;;;;;;;;;;;;;;;23.84;62.37;97205.97;6152980;28;19926;-66
2022/07/14 03:52:55;;;;;;;;;;;;;;;23.98;61.31;97205.22;6152793;28;20397;-65
2022/07/14 03:55:57;;;;;;;;;;;;;;;24.16;60.63;97208.47;6152596;28;19933;-65
2022/07/14 03:59:02;;;;;;;;;;;;;;;24.19;59.97;97205.41;6152957;28;20385;-64
2022/07/14 04:02:08;;;;;;;;;;;;;;;24.16;59.75;97205.78;6152976;28;19926;-65
2022/07/14 04:05:11;;;;;;;;;;;;;;;24.25;60.12;97200.34;6153291;28;20293;-65
2022/07/14 04:08:15;;;;;;;;;;;;;;;24.26;59.90;97193.94;6152896;28;19926;-65
2022/07/14 04:11:17;;;;;;;;;;;;;;;24.17;60.56;97191.31;6152577;28;19926;-65
2022/07/14 04:14:18;;;;;;;;;;;;;;;24.20;60.82;97190.13;6152902;29;20024;-65
2022/07/14 04:17:19;;;;;;;;;;;;;;;24.40;60.65;97190.50;6152328;29;20483;-66
2022/07/14 04:20:20;;;;;;;;;;;;;;;24.49;60.84;97194.03;6152025;28;19927;-67
2022/07/14 04:23:21;;;;;;;;;;;;;;;24.43;60.98;97190.19;6152010;28;19926;-66
2022/07/14 04:26:25;;;;;;;;;;;;;;;24.57;61.14;97192.09;6152432;28;19926;-65
2022/07/14 04:29:26;;;;;;;;;;;;;;;24.57;61.06;97173.28;6152203;29;19926;-65
2022/07/14 04:32:31;;;;;;;;;;;;;;;24.78;60.65;97177.13;6152061;28;19927;-65
2022/07/14 04:35:32;;;;;;;;;;;;;;;24.99;59.08;97184.50;6152454;28;19922;-65
2022/07/14 04:38:33;;;;;;;;;;;;;;;25.24;56.19;97182.44;6151951;28;19949;-65
2022/07/14 04:41:36;;;;;;;;;;;;;;;25.51;55.61;97176.41;6152195;28;19933;-64
2022/07/14 04:44:41;;;;;;;;;;;;;;;25.64;54.55;97172.22;6151892;28;19926;-65
2022/07/14 04:47:44;;;;;;;;;;;;;;;26.40;52.08;97172.72;6151791;28;20315;-65
2022/07/14 04:54:07;;;;;;;;;;;;;;;31.67;42.69;97192.41;6151740;29;19926;-65
2022/07/14 04:57:08;;;;;;;;;;;;;;;33.87;38.70;97190.00;6151886;28;20320;-65
2022/07/14 05:00:12;;;;;;;;;;;;;;;35.68;34.40;97204.00;6166493;28;19926;-65
2022/07/14 05:03:14;;;;;;;;;;;;;;;37.44;31.54;97196.31;6151266;28;19927;-65
2022/07/14 05:06:18;;;;;;;;;;;;;;;39.23;28.02;97194.25;6151241;28;19930;-66
2022/07/14 05:09:31;;;;;;;;;;;;;;;40.70;26.10;97196.06;6151323;28;19926;-65
2022/07/14 05:12:38;;;;;;;;;;;;;;;41.88;22.63;97193.94;6151278;28;19926;-65
2022/07/14 05:15:41;;;;;;;;;;;;;;;42.31;22.48;97184.88;6151261;28;20431;-65
2022/07/14 05:18:42;;;;;;;;;;;;;;;43.04;22.31;97176.09;6151354;29;20421;-65
2022/07/14 05:21:44;;;;;;;;;;;;;;;44.50;21.03;97183.03;6151328;28;19933;-66
2022/07/14 05:24:48;;;;;;;;;;;;;;;45.97;19.37;97178.88;6151227;28;19926;-66
2022/07/14 05:27:50;;;;;;;;;;;;;;;47.03;18.94;97176.75;6150611;29;20305;-65
2022/07/14 05:30:57;;;;;;;;;;;;;;;48.25;16.19;97170.84;6150836;28;20020;-64
2022/07/14 05:33:59;;;;;;;;;;;;;;;48.03;16.66;97163.56;6150781;28;20419;-65
2022/07/14 05:37:01;;;;;;;;;;;;;;;48.41;15.55;97152.31;6150665;28;20323;-66
2022/07/14 05:40:02;;;;;;;;;;;;;;;48.67;14.64;97145.78;6150357;28;19926;-65
2022/07/14 05:43:06;;;;;;;;;;;;;;;48.87;14.76;97156.13;6150150;28;19930;-65
2022/07/14 05:46:08;;;;;;;;;;;;;;;48.70;15.02;97147.88;6149466;28;19926;-65
2022/07/14 05:49:11;;;;;;;;;;;;;;;49.15;14.26;97147.97;6150458;28;19933;-65
2022/07/14 05:52:14;;;;;;;;;;;;;;;49.61;14.50;97142.41;6150050;28;20317;-65
2022/07/14 05:55:17;;;;;;;;;;;;;;;50.85;12.93;97138.31;6150226;29;20308;-65
2022/07/14 05:58:21;;;;;;;;;;;;;;;49.94;13.47;97135.91;6150230;28;19926;-66
2022/07/14 06:01:27;;;;;;;;;;;;;;;49.56;13.18;97128.63;6150248;28;19926;-64
2022/07/14 06:04:32;;;;;;;;;;;;;;;49.08;13.38;97116.16;6150232;28;19923;-64
2022/07/14 06:07:37;;;;;;;;;;;;;;;49.18;13.33;97119.34;6149634;28;20320;-66
2022/07/14 06:10:38;;;;;;;;;;;;;;;49.11;13.55;97123.84;6149657;28;19934;-66
2022/07/14 06:13:41;;;;;;;;;;;;;;;48.63;14.13;97111.31;6149617;29;20392;-65
2022/07/14 06:16:44;;;;;;;;;;;;;;;48.90;13.44;97101.56;6149654;29;19926;-65
2022/07/14 06:19:50;;;;;;;;;;;;;;;48.97;13.66;97097.03;6149990;28;20025;-65
2022/07/14 06:22:54;;;;;;;;;;;;;;;49.26;13.58;97086.88;6149923;28;19926;-65
2022/07/14 06:25:55;;;;;;;;;;;;;;;49.74;12.90;97096.47;6148387;29;19927;-65
2022/07/14 06:28:59;;;;;;;;;;;;;;;49.70;13.27;97094.75;6149354;28;19931;-65
2022/07/14 06:32:03;;;;;;;;;;;;;;;49.94;12.93;97088.34;6164003;28;19926;-66
2022/07/14 06:35:05;;;;;;;;;;;;;;;50.42;12.27;97086.63;6149082;28;19926;-65
2022/07/14 06:38:08;;;;;;;;;;;;;;;50.07;12.75;97087.16;6149217;29;19930;-65
2022/07/14 06:41:12;;;;;;;;;;;;;;;49.95;13.07;97087.19;6149159;29;19926;-65
2022/07/14 06:44:16;;;;;;;;;;;;;;;50.33;12.18;97078.38;6148529;28;19974;-65
2022/07/14 06:47:19;;;;;;;;;;;;;;;50.23;12.46;97068.47;6148968;28;19933;-65
2022/07/14 06:50:23;;;;;;;;;;;;;;;50.57;11.92;97066.28;6148406;28;20344;-65
2022/07/14 06:53:27;;;;;;;;;;;;;;;51.12;11.63;97059.03;6149242;28;19949;-64
2022/07/14 06:56:29;;;;;;;;;;;;;;;51.09;11.56;97051.34;6149007;28;19970;-64
2022/07/14 06:59:31;;;;;;;;;;;;;;;51.58;10.98;97059.41;6147201;29;19938;-64
2022/07/14 07:02:36;;;;;;;;;;;;;;;50.67;11.39;97049.00;6148810;28;20013;-65
2022/07/14 07:08:59;;;;;;;;;;;;;;;50.64;11.55;97030.09;6148929;29;19931;-65
2022/07/14 07:12:05;;;;;;;;;;;;;;;50.76;11.28;97040.41;6148699;28;20018;-65
2022/07/14 07:15:08;;;;;;;;;;;;;;;50.45;11.83;97035.53;6148736;28;19930;-65
2022/07/14 07:18:12;;;;;;;;;;;;;;;51.19;11.34;97028.41;6148705;29;19926;-65
2022/07/14 07:21:21;;;;;;;;;;;;;;;51.35;11.71;97036.00;6148014;28;19933;-65
2022/07/14 07:24:22;;;;;;;;;;;;;;;52.01;11.09;97025.97;6148735;29;19927;-65
2022/07/14 07:27:28;;;;;;;;;;;;;;;53.24;9.73;97036.50;6148942;28;20036;-65
2022/07/14 07:30:35;;;;;;;;;;;;;;;53.28;9.36;97040.16;6148791;29;19989;-65
2022/07/14 07:33:39;;;;;;;;;;;;;;;51.79;10.36;97013.44;6148739;28;19942;-65
2022/07/14 07:36:44;;;;;;;;;;;;;;;51.36;10.89;97013.22;6148910;28;19934;-64
2022/07/14 07:39:46;;;;;;;;;;;;;;;51.29;11.08;97001.00;6148542;28;19926;-66
2022/07/14 07:42:52;;;;;;;;;;;;;;;51.84;10.91;97010.38;6148427;28;19926;-65
2022/07/14 07:45:57;;;;;;;;;;;;;;;52.45;10.40;97017.31;6148540;28;19930;-65
2022/07/14 07:52:29;;;;;;;;;;;;;;;52.63;10.59;97001.63;6163476;28;19926;-66
2022/07/14 07:55:33;;;;;;;;;;;;;;;53.20;9.99;97004.72;6148692;28;19927;-65
2022/07/14 07:58:42;;;;;;;;;;;;;;;53.19;9.90;96997.44;6148563;28;20408;-66
2022/07/14 08:01:44;;;;;;;;;;;;;;;53.07;10.69;96990.03;6148351;29;19974;-65
2022/07/14 08:04:50;;;;;;;;;;;;;;;53.91;9.88;96996.59;6148379;29;19927;-64
2022/07/14 08:07:56;;;;;;;;;;;;;;;52.94;10.24;96989.38;6150112;28;19926;-65
2022/07/14 08:10:57;;;;;;;;;;;;;;;52.49;10.24;96990.94;6151318;28;19965;-65
2022/07/14 08:13:58;;;;;;;;;;;;;;;51.81;11.19;96971.78;6152404;29;19934;-65
2022/07/14 08:17:02;;;;;;;;;;;;;;;51.19;11.81;96974.34;6152408;28;19930;-65
2022/07/14 08:20:08;;;;;;;;;;;;;;;51.27;11.17;96964.09;6151374;29;20353;-65
2022/07/14 08:23:12;;;;;;;;;;;;;;;51.55;11.17;96959.19;6167382;28;20082;-65
2022/07/14 08:26:16;;;;;;;;;;;;;;;51.51;10.99;96946.28;6152424;28;19926;-65
2022/07/14 08:29:20;;;;;;;;;;;;;;;51.34;11.34;96941.88;6152534;28;19927;-65
2022/07/14 08:32:40;;;;;;;;;;;;;;;51.62;11.67;96942.53;6166572;28;20025;-65
2022/07/14 08:35:47;;;;;;;;;;;;;;;52.00;10.81;96940.97;6151944;28;19926;-65
2022/07/14 08:38:50;;;;;;;;;;;;;;;52.14;10.63;96931.22;6151945;28;19926;-65
2022/07/14 08:41:59;;;;;;;;;;;;;;;53.07;10.06;96935.81;6151814;28;19933;-65
2022/07/14 08:45:06;;;;;;;;;;;;;;;52.22;10.57;96924.56;6151228;28;19934;-65
2022/07/14 08:48:10;;;;;;;;;;;;;;;53.28;9.90;96924.88;6151477;28;19982;-65
2022/07/14 08:51:14;;;;;;;;;;;;;;;53.14;10.35;96925.50;6151753;28;20344;-65
2022/07/14 08:54:16;;;;;;;;;;;;;;;53.56;9.83;96927.31;6151552;28;19926;-65
2022/07/14 08:57:18;;;;;;;;;;;;;;;54.05;9.80;96917.97;6151460;28;19938;-65
2022/07/14 09:00:23;;;;;;;;;;;;;;;54.17;9.16;96921.72;6151526;28;19926;-66
2022/07/14 09:03:24;;;;;;;;;;;;;;;53.04;9.88;96922.50;6151146;28;19959;-65
2022/07/14 09:06:44;;;;;;;;;;;;;;;51.97;10.39;96907.19;6151068;28;19936;-64
2022/07/14 09:09:59;;;;;;;;;;;;;;;51.01;11.04;96917.03;6150974;28;20446;-64
2022/07/14 09:13:29;;;;;;;;;;;;;;;50.48;11.37;96906.00;6151334;28;20320;-65
2022/07/14 09:16:30;;;;;;;;;;;;;;;51.03;10.80;96898.66;6150436;28;19970;-66
2022/07/14 09:19:31;;;;;;;;;;;;;;;51.26;10.82;96907.22;6150130;28;20032;-65
2022/07/14 09:22:39;;;;;;;;;;;;;;;52.08;10.48;96897.84;6151260;28;20496;-65
2022/07/14 09:25:40;;;;;;;;;;;;;;;53.77;9.85;96907.16;6151209;28;19942;-65
2022/07/14 09:28:45;;;;;;;;;;;;;;;55.38;9.02;96902.38;6151014;28;20012;-65
2022/07/14 09:31:47;;;;;;;;;;;;;;;54.57;9.11;96901.25;6150736;28;19985;-64
2022/07/14 09:34:57;;;;;;;;;;;;;;;52.72;10.12;96897.47;6151245;28;19932;-65
2022/07/14 09:37:58;;;;;;;;;;;;;;;51.95;10.63;96890.75;6150849;28;19974;-65
2022/07/14 09:41:08;;;;;;;;;;;;;;;52.49;10.00;96887.03;6150577;28;20388;-65
2022/07/14 09:44:14;;;;;;;;;;;;;;;53.17;9.49;96878.94;6150254;28;20384;-65
2022/07/14 09:47:15;;;;;;;;;;;;;;;53.30;9.95;96879.50;6150354;28;20020;-65
2022/07/14 09:50:35;;;;;;;;;;;;;;;53.88;9.85;96872.69;6150325;28;19923;-65
2022/07/14 09:53:50;;;;;;;;;;;;;;;54.07;9.38;96875.34;6150563;29;19927;-64
2022/07/14 09:56:56;;;;;;;;;;;;;;;52.36;10.34;96863.09;6150417;28;19922;-65
2022/07/14 10:00:11;;;;;;;;;;;;;;;51.78;10.52;96854.69;6148908;28;20005;-66
2022/07/14 10:03:12;;;;;;;;;;;;;;;51.74;10.58;96842.59;6149540;28;19927;-66
2022/07/14 10:06:19;;;;;;;;;;;;;;;51.89;10.52;96844.50;6150080;28;19935;-65
2022/07/14 10:09:21;;;;;;;;;;;;;;;52.67;10.35;96847.19;6150121;28;19933;-66
2022/07/14 10:12:24;;;;;;;;;;;;;;;52.55;10.25;96842.56;6149518;28;19933;-64
2022/07/14 10:15:28;;;;;;;;;;;;;;;52.11;10.41;96839.34;6149662;28;20041;-65
2022/07/14 10:18:32;;;;;;;;;;;;;;;52.32;10.28;96839.75;6149819;28;19969;-65
2022/07/14 10:21:37;;;;;;;;;;;;;;;52.60;10.35;96838.63;6149631;28;19927;-65
2022/07/14 10:24:40;;;;;;;;;;;;;;;51.57;10.63;96833.44;6149989;28;19930;-65
2022/07/14 10:27:48;;;;;;;;;;;;;;;50.74;11.33;96821.50;6149665;28;19926;-64
2022/07/14 10:31:01;;;;;;;;;;;;;;;50.85;11.15;96818.94;6149095;28;19930;-64
2022/07/14 10:34:02;;;;;;;;;;;;;;;51.54;10.85;96814.53;6147941;29;19981;-64
2022/07/14 10:37:13;;;;;;;;;;;;;;;51.59;10.80;96808.63;6148385;29;19926;-67
2022/07/14 10:40:49;;;;;;;;;;;;;;;51.17;11.13;96803.72;6149060;28;19934;-64
2022/07/14 10:44:00;;;;;;;;;;;;;;;50.70;11.26;96800.97;6146640;28;19926;-66
2022/07/14 10:47:07;;;;;;;;;;;;;;;50.35;11.42;96796.13;6149418;28;20425;-65
2022/07/14 10:50:14;;;;;;;;;;;;;;;49.53;11.93;96789.03;6149219;28;19926;-65
2022/07/14 10:53:29;;;;;;;;;;;;;;;48.76;12.78;96789.06;6149250;28;19949;-65
2022/07/14 10:56:31;;;;;;;;;;;;;;;49.04;12.31;96782.75;6148802;28;20069;-65
2022/07/14 10:59:35;;;;;;;;;;;;;;;48.84;12.47;96778.91;6149569;28;19926;-65
2022/07/14 11:02:38;;;;;;;;;;;;;;;47.69;13.37;96775.00;6149065;28;20329;-65
2022/07/14 11:05:57;;;;;;;;;;;;;;;47.10;13.74;96772.38;6148804;28;19926;-65
2022/07/14 11:09:17;;;;;;;;;;;;;;;47.39;13.70;96771.47;6148807;28;19930;-65
2022/07/14 11:12:20;;;;;;;;;;;;;;;47.17;13.78;96764.28;6148783;28;19973;-65
2022/07/14 11:15:41;;;;;;;;;;;;;;;47.39;13.95;96765.88;6149190;28;20404;-65
2022/07/14 11:18:45;;;;;;;;;;;;;;;47.63;13.59;96766.03;6148950;28;20424;-65
2022/07/14 11:22:06;;;;;;;;;;;;;;;47.47;13.59;96762.25;6148635;28;20315;-65
2022/07/14 11:25:22;;;;;;;;;;;;;;;45.99;14.63;96753.91;6147387;29;20406;-65
2022/07/14 11:28:32;;;;;;;;;;;;;;;46.04;14.69;96745.38;6148858;28;19926;-65
2022/07/14 11:31:42;;;;;;;;;;;;;;;46.97;14.25;96749.19;6148719;28;19927;-64
2022/07/14 11:38:25;;;;;;;;;;;;;;;47.44;14.21;96746.22;6149000;28;19926;-65
2022/07/14 11:41:41;;;;;;;;;;;;;;;47.09;14.16;96743.69;6148909;28;19934;-65
2022/07/14 11:44:43;;;;;;;;;;;;;;;45.87;15.54;96747.03;6153077;28;19926;-64
2022/07/14 11:47:49;;;;;;;;;;;;;;;43.94;17.05;96735.13;6153445;28;19926;-66
2022/07/14 11:50:50;;;;;;;;;;;;;;;41.93;19.08;96726.84;6152800;28;19926;-65
2022/07/14 11:53:55;;;;;;;;;;;;;;;41.09;19.96;96724.09;6153490;28;19966;-66
2022/07/14 11:57:03;;;;;;;;;;;;;;;40.45;20.55;96725.50;6153430;28;19927;-66
2022/07/14 12:00:09;;;;;;;;;;;;;;;40.22;21.05;96721.66;6153220;28;20393;-65
2022/07/14 12:03:15;;;;;;;;;;;;;;;40.28;21.41;96717.69;6152955;28;20321;-65
2022/07/14 12:06:19;;;;;;;;;;;;;;;40.21;21.85;96723.59;6152546;28;19933;-65
2022/07/14 12:09:27;;;;;;;;;;;;;;;40.27;22.24;96710.56;6152336;28;20415;-65
2022/07/14 12:12:38;;;;;;;;;;;;;;;39.73;23.01;96710.53;6152064;28;19932;-66
2022/07/14 12:15:44;;;;;;;;;;;;;;;39.14;23.69;96708.84;6151738;28;19926;-65
2022/07/14 12:18:50;;;;;;;;;;;;;;;38.55;23.88;96701.47;6152709;28;19926;-65
2022/07/14 12:21:56;;;;;;;;;;;;;;;38.09;24.26;96696.16;6151749;28;19934;-65
2022/07/14 12:24:58;;;;;;;;;;;;;;;38.06;24.63;96702.22;6152238;28;20019;-64
2022/07/14 12:28:03;;;;;;;;;;;;;;;37.86;25.26;96690.16;6152195;29;20074;-66
2022/07/14 12:31:06;;;;;;;;;;;;;;;37.72;25.39;96694.59;6152174;28;20433;-66
2022/07/14 12:34:08;;;;;;;;;;;;;;;37.83;24.65;96687.97;6151781;29;19926;-65
2022/07/14 12:37:09;;;;;;;;;;;;;;;37.90;24.78;96680.25;6151980;28;19930;-65
2022/07/14 12:40:15;;;;;;;;;;;;;;;37.33;25.82;96670.47;6151969;28;19927;-64
2022/07/14 12:43:19;;;;;;;;;;;;;;;37.54;26.08;96676.78;6151735;28;19930;-66
2022/07/14 12:46:23;;;;;;;;;;;;;;;36.75;26.16;96664.41;6151730;29;19926;-66
2022/07/14 12:49:27;;;;;;;;;;;;;;;36.00;26.93;96664.66;6151947;28;19922;-65
2022/07/14 12:52:49;;;;;;;;;;;;;;;35.33;28.24;96663.44;6151457;28;19930;-65
2022/07/14 12:55:58;;;;;;;;;;;;;;;35.26;28.52;96658.16;6151417;28;19926;-66
2022/07/14 12:59:03;;;;;;;;;;;;;;;35.13;28.76;96655.88;6151276;28;19949;-66
2022/07/14 13:02:09;;;;;;;;;;;;;;;35.45;28.76;96655.03;6151561;28;19926;-65
2022/07/14 13:05:11;;;;;;;;;;;;;;;35.61;28.35;96656.78;6151374;28;19938;-65
2022/07/14 13:08:28;;;;;;;;;;;;;;;35.95;28.08;96656.41;6151233;28;19926;-65
2022/07/14 13:11:31;;;;;;;;;;;;;;;35.84;27.48;96654.72;6151333;28;19927;-65
2022/07/14 13:14:53;;;;;;;;;;;;;;;35.87;27.46;96656.91;6151101;28;20396;-65
2022/07/14 13:18:07;;;;;;;;;;;;;;;35.51;27.62;96640.28;6149498;29;19926;-66
2022/07/14 13:21:08;;;;;;;;;;;;;;;35.37;28.07;96644.56;6150965;28;20809;-65
2022/07/14 13:24:13;;;;;;;;;;;;;;;35.18;28.58;96650.44;6151130;28;19931;-66
2022/07/14 13:27:18;;;;;;;;;;;;;;;34.94;28.99;96638.22;6150810;28;19927;-65
2022/07/14 13:30:19;;;;;;;;;;;;;;;34.85;29.51;96643.34;6150713;28;20032;-65
2022/07/14 13:33:20;;;;;;;;;;;;;;;34.69;29.72;96633.34;6151082;28;19981;-65
2022/07/14 13:36:25;;;;;;;;;;;;;;;35.02;29.27;96640.47;6150593;28;20352;-65
2022/07/14 13:39:27;;;;;;;;;;;;;;;35.40;30.02;96630.38;6150376;28;19933;-66
2022/07/14 13:42:31;;;;;;;;;;;;;;;35.47;30.59;96644.63;6150323;28;19926;-66
2022/07/14 13:45:35;;;;;;;;;;;;;;;35.59;29.60;96647.22;6150370;28;19927;-66
2022/07/14 13:48:39;;;;;;;;;;;;;;;35.58;29.50;96640.88;6150529;28;19930;-66
2022/07/14 13:55:05;;;;;;;;;;;;;;;35.52;29.14;96630.97;6150556;28;19926;-65
2022/07/14 13:58:10;;;;;;;;;;;;;;;35.45;29.30;96630.41;6149982;28;19926;-66
2022/07/14 14:01:11;;;;;;;;;;;;;;;35.27;29.74;96635.22;6148608;29;19926;-65
2022/07/14 14:04:15;;;;;;;;;;;;;;;35.03;30.03;96633.91;6149673;28;19934;-65
2022/07/14 14:07:18;;;;;;;;;;;;;;;34.72;30.33;96628.16;6149859;28;19926;-65
2022/07/14 14:10:19;;;;;;;;;;;;;;;34.51;30.48;96621.66;6149816;28;20392;-66
2022/07/14 14:13:28;;;;;;;;;;;;;;;34.34;30.62;96613.56;6150006;28;19926;-65
2022/07/14 14:16:32;;;;;;;;;;;;;;;34.26;30.91;96619.50;6149823;28;19969;-66
2022/07/14 14:19:35;;;;;;;;;;;;;;;34.19;30.78;96625.13;6149583;28;19922;-65
2022/07/14 14:22:39;;;;;;;;;;;;;;;34.17;30.49;96618.31;6149759;28;19923;-65
2022/07/14 14:25:43;;;;;;;;;;;;;;;34.29;30.69;96618.16;6148456;28;20017;-66
2022/07/14 14:28:45;;;;;;;;;;;;;;;34.60;30.36;96611.13;6149559;28;19926;-66
2022/07/14 14:31:52;;;;;;;;;;;;;;;34.82;30.17;96620.06;6149470;28;19926;-65
2022/07/14 14:34:55;;;;;;;;;;;;;;;34.89;29.95;96613.56;6149471;28;20316;-66
2022/07/14 14:37:57;;;;;;;;;;;;;;;34.81;30.31;96607.47;6149311;29;19933;-65
2022/07/14 14:41:02;;;;;;;;;;;;;;;34.71;30.28;96606.56;6149538;28;20017;-65
2022/07/14 14:44:06;;;;;;;;;;;;;;;34.67;30.31;96603.53;6149125;28;19926;-65
2022/07/14 14:47:09;;;;;;;;;;;;;;;34.34;30.77;96594.47;6148931;28;20312;-65
2022/07/14 14:50:13;;;;;;;;;;;;;;;34.09;31.36;96596.91;6148877;29;20404;-65
2022/07/14 14:53:18;;;;;;;;;;;;;;;33.69;31.70;96592.59;6149078;28;20471;-65
2022/07/14 14:56:22;;;;;;;;;;;;;;;33.41;31.72;96597.09;6148513;29;19926;-65
2022/07/14 14:59:26;;;;;;;;;;;;;;;33.28;32.39;96581.91;6148393;28;19933;-66
2022/07/14 15:02:30;;;;;;;;;;;;;;;33.22;32.60;96593.00;6148643;28;20412;-65
2022/07/14 15:05:32;;;;;;;;;;;;;;;33.09;32.48;96578.66;6148758;29;19930;-65
2022/07/14 15:08:33;;;;;;;;;;;;;;;32.88;33.19;96587.56;6149187;28;19927;-66
2022/07/14 15:11:35;;;;;;;;;;;;;;;32.65;33.42;96594.00;6148603;28;20292;-66
2022/07/14 15:14:36;;;;;;;;;;;;;;;32.55;33.66;96589.19;6148791;29;19930;-64
2022/07/14 15:17:42;;;;;;;;;;;;;;;32.55;33.86;96588.34;6152153;28;19934;-66
2022/07/14 15:20:45;;;;;;;;;;;;;;;32.40;33.58;96578.81;6152669;28;19927;-66
2022/07/14 15:23:46;;;;;;;;;;;;;;;32.16;34.10;96567.25;6153633;28;19949;-66
2022/07/14 15:26:50;;;;;;;;;;;;;;;31.87;34.55;96571.00;6153413;29;19937;-65
2022/07/14 15:29:53;;;;;;;;;;;;;;;31.90;35.25;96565.06;6153301;29;19927;-65
2022/07/14 15:32:54;;;;;;;;;;;;;;;31.77;35.54;96572.44;6153277;29;19927;-65
2022/07/14 15:35:57;;;;;;;;;;;;;;;31.48;35.34;96571.59;6153477;28;19974;-65
2022/07/14 15:42:23;;;;;;;;;;;;;;;31.22;36.59;96570.16;6152968;28;19926;-66
2022/07/14 15:45:25;;;;;;;;;;;;;;;31.03;36.83;96571.38;6152231;28;19933;-66
2022/07/14 15:48:27;;;;;;;;;;;;;;;30.94;37.45;96580.91;6152742;28;19961;-66
2022/07/14 15:51:30;;;;;;;;;;;;;;;30.74;37.76;96575.78;6152922;28;20420;-66
2022/07/14 15:54:35;;;;;;;;;;;;;;;30.53;37.85;96588.03;6152844;28;19927;-66
2022/07/14 15:57:40;;;;;;;;;;;;;;;30.25;37.80;96594.94;6152944;28;19927;-66
2022/07/14 16:00:45;;;;;;;;;;;;;;;30.43;38.79;96603.03;6152565;28;19926;-65
2022/07/14 16:03:51;;;;;;;;;;;;;;;30.35;39.25;96603.34;6152716;28;19930;-64
2022/07/14 16:06:54;;;;;;;;;;;;;;;30.14;39.70;96606.53;6152458;28;19927;-65
2022/07/14 16:09:57;;;;;;;;;;;;;;;29.94;40.15;96607.63;6152727;28;19927;-66
2022/07/14 16:12:58;;;;;;;;;;;;;;;29.67;40.23;96611.75;6152594;29;19930;-66
2022/07/14 16:15:59;;;;;;;;;;;;;;;29.67;40.58;96615.28;6152562;28;19926;-66
2022/07/14 16:19:00;;;;;;;;;;;;;;;29.63;41.12;96618.66;6152139;28;20356;-66
2022/07/14 16:22:04;;;;;;;;;;;;;;;29.53;41.30;96628.13;6152345;28;19927;-67